sensor_id;sensor_type;location;lat;lon;timestamp;P1;durP1;ratioP1;P2;durP2;ratioP2
6388;SDS011;3227;42.654;23.360;2022-12-18T00:01:00;7.43;;;4.50;;
6388;SDS011;3227;42.654;23.360;2022-12-18T00:03:31;8.20;;;4.83;;
6388;SDS011;3227;42.654;23.360;2022-12-18T00:05:58;7.17;;;4.50;;
6388;SDS011;3227;42.654;23.360;2022-12-18T00:08:25;8.10;;;4.87;;
6388;SDS011;3227;42.654;23.360;2022-12-18T00:10:52;7.83;;;4.77;;
6388;SDS011;3227;42.654;23.360;2022-12-18T00:13:18;8.03;;;5.07;;
6388;SDS011;3227;42.654;23.360;2022-12-18T00:15:46;9.20;;;5.40;;
6388;SDS011;3227;42.654;23.360;2022-12-18T00:18:13;9.73;;;5.33;;
6388;SDS011;3227;42.654;23.360;2022-12-18T00:20:40;8.53;;;5.47;;
6388;SDS011;3227;42.654;23.360;2022-12-18T00:23:07;8.90;;;5.33;;
6388;SDS011;3227;42.654;23.360;2022-12-18T00:25:34;8.33;;;5.40;;
6388;SDS011;3227;42.654;23.360;2022-12-18T00:28:01;9.00;;;5.43;;
6388;SDS011;3227;42.654;23.360;2022-12-18T00:30:29;8.27;;;5.47;;
6388;SDS011;3227;42.654;23.360;2022-12-18T00:32:57;9.57;;;5.63;;
6388;SDS011;3227;42.654;23.360;2022-12-18T00:35:24;8.60;;;5.60;;
6388;SDS011;3227;42.654;23.360;2022-12-18T00:37:51;7.30;;;4.90;;
6388;SDS011;3227;42.654;23.360;2022-12-18T00:40:17;9.17;;;5.80;;
6388;SDS011;3227;42.654;23.360;2022-12-18T00:42:44;10.17;;;6.13;;
6388;SDS011;3227;42.654;23.360;2022-12-18T00:45:22;8.80;;;5.80;;
6388;SDS011;3227;42.654;23.360;2022-12-18T00:47:49;8.90;;;5.77;;
6388;SDS011;3227;42.654;23.360;2022-12-18T00:50:17;9.33;;;5.43;;
6388;SDS011;3227;42.654;23.360;2022-12-18T00:52:44;9.60;;;5.70;;
6388;SDS011;3227;42.654;23.360;2022-12-18T00:55:11;9.50;;;5.90;;
6388;SDS011;3227;42.654;23.360;2022-12-18T00:57:39;9.90;;;6.07;;
6388;SDS011;3227;42.654;23.360;2022-12-18T01:00:06;10.87;;;6.50;;
6388;SDS011;3227;42.654;23.360;2022-12-18T01:02:36;10.67;;;6.47;;
6388;SDS011;3227;42.654;23.360;2022-12-18T01:05:03;10.60;;;6.60;;
6388;SDS011;3227;42.654;23.360;2022-12-18T01:07:31;10.40;;;6.60;;
6388;SDS011;3227;42.654;23.360;2022-12-18T01:09:58;10.13;;;7.07;;
6388;SDS011;3227;42.654;23.360;2022-12-18T01:12:28;10.67;;;7.07;;
6388;SDS011;3227;42.654;23.360;2022-12-18T01:14:54;11.33;;;6.57;;
6388;SDS011;3227;42.654;23.360;2022-12-18T01:17:21;11.77;;;6.77;;
6388;SDS011;3227;42.654;23.360;2022-12-18T01:19:48;11.93;;;7.20;;
6388;SDS011;3227;42.654;23.360;2022-12-18T01:22:15;11.40;;;6.90;;
6388;SDS011;3227;42.654;23.360;2022-12-18T01:24:43;9.80;;;6.57;;
6388;SDS011;3227;42.654;23.360;2022-12-18T01:27:15;9.50;;;6.03;;
6388;SDS011;3227;42.654;23.360;2022-12-18T01:29:42;11.50;;;6.77;;
6388;SDS011;3227;42.654;23.360;2022-12-18T01:32:09;10.53;;;6.47;;
6388;SDS011;3227;42.654;23.360;2022-12-18T01:34:36;9.63;;;6.57;;
6388;SDS011;3227;42.654;23.360;2022-12-18T01:37:03;9.07;;;6.53;;
6388;SDS011;3227;42.654;23.360;2022-12-18T01:39:31;9.67;;;6.27;;
6388;SDS011;3227;42.654;23.360;2022-12-18T01:42:00;13.10;;;7.10;;
6388;SDS011;3227;42.654;23.360;2022-12-18T01:47:26;11.03;;;6.97;;
6388;SDS011;3227;42.654;23.360;2022-12-18T01:49:57;11.90;;;7.20;;
6388;SDS011;3227;42.654;23.360;2022-12-18T01:52:27;11.37;;;7.20;;
6388;SDS011;3227;42.654;23.360;2022-12-18T01:54:57;10.87;;;7.20;;
6388;SDS011;3227;42.654;23.360;2022-12-18T01:57:26;12.73;;;6.97;;
6388;SDS011;3227;42.654;23.360;2022-12-18T01:59:55;12.03;;;6.63;;
6388;SDS011;3227;42.654;23.360;2022-12-18T02:02:26;10.43;;;6.80;;
6388;SDS011;3227;42.654;23.360;2022-12-18T02:04:54;10.17;;;6.70;;
6388;SDS011;3227;42.654;23.360;2022-12-18T02:07:23;11.73;;;6.83;;
6388;SDS011;3227;42.654;23.360;2022-12-18T02:09:58;9.93;;;6.53;;
6388;SDS011;3227;42.654;23.360;2022-12-18T02:12:30;11.23;;;6.20;;
6388;SDS011;3227;42.654;23.360;2022-12-18T02:15:08;11.20;;;6.60;;
6388;SDS011;3227;42.654;23.360;2022-12-18T02:17:40;9.63;;;6.40;;
6388;SDS011;3227;42.654;23.360;2022-12-18T02:20:12;10.90;;;7.17;;
6388;SDS011;3227;42.654;23.360;2022-12-18T02:22:46;10.20;;;6.43;;
6388;SDS011;3227;42.654;23.360;2022-12-18T02:25:29;11.23;;;6.73;;
6388;SDS011;3227;42.654;23.360;2022-12-18T02:28:09;11.83;;;7.53;;
6388;SDS011;3227;42.654;23.360;2022-12-18T02:30:38;10.90;;;7.13;;
6388;SDS011;3227;42.654;23.360;2022-12-18T02:33:07;10.03;;;6.67;;
6388;SDS011;3227;42.654;23.360;2022-12-18T02:35:37;9.60;;;6.47;;
6388;SDS011;3227;42.654;23.360;2022-12-18T02:38:06;11.10;;;6.87;;
6388;SDS011;3227;42.654;23.360;2022-12-18T02:40:33;10.87;;;7.03;;
6388;SDS011;3227;42.654;23.360;2022-12-18T02:43:02;11.10;;;6.73;;
6388;SDS011;3227;42.654;23.360;2022-12-18T02:45:34;12.40;;;6.80;;
6388;SDS011;3227;42.654;23.360;2022-12-18T02:48:01;12.20;;;6.57;;
6388;SDS011;3227;42.654;23.360;2022-12-18T02:50:30;9.83;;;6.33;;
6388;SDS011;3227;42.654;23.360;2022-12-18T02:53:06;10.80;;;6.83;;
6388;SDS011;3227;42.654;23.360;2022-12-18T02:55:43;12.07;;;6.57;;
6388;SDS011;3227;42.654;23.360;2022-12-18T02:58:21;10.37;;;6.73;;
6388;SDS011;3227;42.654;23.360;2022-12-18T03:00:58;9.77;;;6.60;;
6388;SDS011;3227;42.654;23.360;2022-12-18T03:03:30;9.73;;;6.33;;
6388;SDS011;3227;42.654;23.360;2022-12-18T03:06:02;12.83;;;6.27;;
6388;SDS011;3227;42.654;23.360;2022-12-18T03:08:34;10.23;;;6.70;;
6388;SDS011;3227;42.654;23.360;2022-12-18T03:11:06;10.20;;;6.30;;
6388;SDS011;3227;42.654;23.360;2022-12-18T03:13:37;10.63;;;6.47;;
6388;SDS011;3227;42.654;23.360;2022-12-18T03:16:08;10.60;;;6.60;;
6388;SDS011;3227;42.654;23.360;2022-12-18T03:18:38;10.27;;;6.77;;
6388;SDS011;3227;42.654;23.360;2022-12-18T03:21:11;10.47;;;6.87;;
6388;SDS011;3227;42.654;23.360;2022-12-18T03:23:44;9.60;;;6.33;;
6388;SDS011;3227;42.654;23.360;2022-12-18T03:26:15;9.57;;;6.13;;
6388;SDS011;3227;42.654;23.360;2022-12-18T03:28:47;10.83;;;6.73;;
6388;SDS011;3227;42.654;23.360;2022-12-18T03:31:17;10.73;;;6.50;;
6388;SDS011;3227;42.654;23.360;2022-12-18T03:33:51;9.27;;;6.27;;
6388;SDS011;3227;42.654;23.360;2022-12-18T03:36:20;11.03;;;6.77;;
6388;SDS011;3227;42.654;23.360;2022-12-18T03:38:47;10.63;;;6.20;;
6388;SDS011;3227;42.654;23.360;2022-12-18T03:41:15;10.37;;;6.03;;
6388;SDS011;3227;42.654;23.360;2022-12-18T03:43:51;11.53;;;6.87;;
6388;SDS011;3227;42.654;23.360;2022-12-18T03:46:24;12.90;;;6.80;;
6388;SDS011;3227;42.654;23.360;2022-12-18T03:48:56;11.30;;;6.63;;
6388;SDS011;3227;42.654;23.360;2022-12-18T03:51:38;11.03;;;6.37;;
6388;SDS011;3227;42.654;23.360;2022-12-18T03:54:09;11.13;;;6.90;;
6388;SDS011;3227;42.654;23.360;2022-12-18T03:56:38;10.90;;;6.73;;
6388;SDS011;3227;42.654;23.360;2022-12-18T03:59:09;12.73;;;6.90;;
6388;SDS011;3227;42.654;23.360;2022-12-18T04:01:40;13.77;;;7.07;;
6388;SDS011;3227;42.654;23.360;2022-12-18T04:04:09;11.70;;;6.60;;
6388;SDS011;3227;42.654;23.360;2022-12-18T04:06:38;10.33;;;7.20;;
6388;SDS011;3227;42.654;23.360;2022-12-18T04:09:07;10.70;;;6.77;;
6388;SDS011;3227;42.654;23.360;2022-12-18T04:11:34;10.73;;;6.87;;
6388;SDS011;3227;42.654;23.360;2022-12-18T04:14:01;11.90;;;6.97;;
6388;SDS011;3227;42.654;23.360;2022-12-18T04:16:29;11.20;;;6.50;;
6388;SDS011;3227;42.654;23.360;2022-12-18T04:18:56;11.47;;;6.77;;
6388;SDS011;3227;42.654;23.360;2022-12-18T04:21:23;15.27;;;7.90;;
6388;SDS011;3227;42.654;23.360;2022-12-18T04:23:50;11.20;;;6.83;;
6388;SDS011;3227;42.654;23.360;2022-12-18T04:26:17;12.67;;;7.13;;
6388;SDS011;3227;42.654;23.360;2022-12-18T04:28:46;11.63;;;6.90;;
6388;SDS011;3227;42.654;23.360;2022-12-18T04:31:13;10.53;;;6.60;;
6388;SDS011;3227;42.654;23.360;2022-12-18T04:33:41;12.53;;;7.80;;
6388;SDS011;3227;42.654;23.360;2022-12-18T04:36:08;10.93;;;7.50;;
6388;SDS011;3227;42.654;23.360;2022-12-18T04:38:35;11.63;;;7.53;;
6388;SDS011;3227;42.654;23.360;2022-12-18T04:41:01;11.27;;;7.17;;
6388;SDS011;3227;42.654;23.360;2022-12-18T04:43:28;14.67;;;7.67;;
6388;SDS011;3227;42.654;23.360;2022-12-18T04:46:00;12.23;;;7.43;;
6388;SDS011;3227;42.654;23.360;2022-12-18T04:48:29;13.10;;;8.27;;
6388;SDS011;3227;42.654;23.360;2022-12-18T04:50:58;12.57;;;7.73;;
6388;SDS011;3227;42.654;23.360;2022-12-18T04:53:24;14.37;;;7.60;;
6388;SDS011;3227;42.654;23.360;2022-12-18T04:56:01;13.00;;;8.33;;
6388;SDS011;3227;42.654;23.360;2022-12-18T04:58:29;12.83;;;8.47;;
6388;SDS011;3227;42.654;23.360;2022-12-18T05:00:56;13.60;;;8.20;;
6388;SDS011;3227;42.654;23.360;2022-12-18T05:03:22;12.33;;;8.77;;
6388;SDS011;3227;42.654;23.360;2022-12-18T05:05:49;12.47;;;8.47;;
6388;SDS011;3227;42.654;23.360;2022-12-18T05:08:18;13.20;;;8.40;;
6388;SDS011;3227;42.654;23.360;2022-12-18T05:10:45;14.67;;;8.90;;
6388;SDS011;3227;42.654;23.360;2022-12-18T05:13:12;15.30;;;9.37;;
6388;SDS011;3227;42.654;23.360;2022-12-18T05:15:38;15.20;;;8.80;;
6388;SDS011;3227;42.654;23.360;2022-12-18T05:18:07;13.43;;;8.30;;
6388;SDS011;3227;42.654;23.360;2022-12-18T05:20:34;16.27;;;9.70;;
6388;SDS011;3227;42.654;23.360;2022-12-18T05:23:01;15.37;;;8.77;;
6388;SDS011;3227;42.654;23.360;2022-12-18T05:25:29;14.60;;;8.77;;
6388;SDS011;3227;42.654;23.360;2022-12-18T05:27:55;13.57;;;8.30;;
6388;SDS011;3227;42.654;23.360;2022-12-18T05:30:22;14.50;;;9.10;;
6388;SDS011;3227;42.654;23.360;2022-12-18T05:32:49;13.27;;;8.77;;
6388;SDS011;3227;42.654;23.360;2022-12-18T05:35:16;17.60;;;9.73;;
6388;SDS011;3227;42.654;23.360;2022-12-18T05:37:43;15.07;;;8.80;;
6388;SDS011;3227;42.654;23.360;2022-12-18T05:40:10;14.97;;;8.60;;
6388;SDS011;3227;42.654;23.360;2022-12-18T05:42:38;16.97;;;9.87;;
6388;SDS011;3227;42.654;23.360;2022-12-18T05:45:06;15.77;;;9.40;;
6388;SDS011;3227;42.654;23.360;2022-12-18T05:47:33;18.90;;;10.40;;
6388;SDS011;3227;42.654;23.360;2022-12-18T05:50:00;17.50;;;11.10;;
6388;SDS011;3227;42.654;23.360;2022-12-18T05:52:27;16.50;;;9.77;;
6388;SDS011;3227;42.654;23.360;2022-12-18T05:54:54;14.73;;;9.17;;
6388;SDS011;3227;42.654;23.360;2022-12-18T05:57:25;16.70;;;9.63;;
6388;SDS011;3227;42.654;23.360;2022-12-18T05:59:54;16.73;;;10.60;;
6388;SDS011;3227;42.654;23.360;2022-12-18T06:02:20;15.80;;;10.37;;
6388;SDS011;3227;42.654;23.360;2022-12-18T06:04:47;15.50;;;10.10;;
6388;SDS011;3227;42.654;23.360;2022-12-18T06:07:14;15.80;;;9.40;;
6388;SDS011;3227;42.654;23.360;2022-12-18T06:09:41;16.97;;;10.33;;
6388;SDS011;3227;42.654;23.360;2022-12-18T06:12:07;15.80;;;10.33;;
6388;SDS011;3227;42.654;23.360;2022-12-18T06:14:35;16.27;;;10.30;;
6388;SDS011;3227;42.654;23.360;2022-12-18T06:17:03;15.93;;;9.60;;
6388;SDS011;3227;42.654;23.360;2022-12-18T06:19:30;16.13;;;10.57;;
6388;SDS011;3227;42.654;23.360;2022-12-18T06:21:57;17.30;;;10.67;;
6388;SDS011;3227;42.654;23.360;2022-12-18T06:24:24;16.83;;;10.77;;
6388;SDS011;3227;42.654;23.360;2022-12-18T06:26:51;16.97;;;10.73;;
6388;SDS011;3227;42.654;23.360;2022-12-18T06:29:17;17.63;;;10.73;;
6388;SDS011;3227;42.654;23.360;2022-12-18T06:31:44;17.10;;;10.67;;
6388;SDS011;3227;42.654;23.360;2022-12-18T06:34:12;16.40;;;10.57;;
6388;SDS011;3227;42.654;23.360;2022-12-18T06:36:39;15.83;;;10.53;;
6388;SDS011;3227;42.654;23.360;2022-12-18T06:39:06;17.90;;;10.97;;
6388;SDS011;3227;42.654;23.360;2022-12-18T06:41:33;15.03;;;10.00;;
6388;SDS011;3227;42.654;23.360;2022-12-18T06:43:59;18.37;;;10.43;;
6388;SDS011;3227;42.654;23.360;2022-12-18T06:46:26;17.80;;;11.23;;
6388;SDS011;3227;42.654;23.360;2022-12-18T06:48:53;18.47;;;11.10;;
6388;SDS011;3227;42.654;23.360;2022-12-18T06:51:22;16.90;;;11.13;;
6388;SDS011;3227;42.654;23.360;2022-12-18T06:53:49;19.90;;;10.90;;
6388;SDS011;3227;42.654;23.360;2022-12-18T06:56:16;18.50;;;12.27;;
6388;SDS011;3227;42.654;23.360;2022-12-18T06:58:43;18.20;;;11.37;;
6388;SDS011;3227;42.654;23.360;2022-12-18T07:01:10;17.67;;;11.40;;
6388;SDS011;3227;42.654;23.360;2022-12-18T07:03:37;19.50;;;11.93;;
6388;SDS011;3227;42.654;23.360;2022-12-18T07:06:05;17.53;;;10.63;;
6388;SDS011;3227;42.654;23.360;2022-12-18T07:08:33;17.60;;;11.80;;
6388;SDS011;3227;42.654;23.360;2022-12-18T07:11:02;16.77;;;10.50;;
6388;SDS011;3227;42.654;23.360;2022-12-18T07:13:30;19.00;;;11.57;;
6388;SDS011;3227;42.654;23.360;2022-12-18T07:16:02;18.77;;;10.87;;
6388;SDS011;3227;42.654;23.360;2022-12-18T07:18:33;17.80;;;11.33;;
6388;SDS011;3227;42.654;23.360;2022-12-18T07:21:02;19.70;;;11.63;;
6388;SDS011;3227;42.654;23.360;2022-12-18T07:23:31;17.67;;;11.07;;
6388;SDS011;3227;42.654;23.360;2022-12-18T07:26:01;18.43;;;11.90;;
6388;SDS011;3227;42.654;23.360;2022-12-18T07:28:29;18.33;;;11.50;;
6388;SDS011;3227;42.654;23.360;2022-12-18T07:30:56;17.23;;;11.30;;
6388;SDS011;3227;42.654;23.360;2022-12-18T07:33:22;21.20;;;11.93;;
6388;SDS011;3227;42.654;23.360;2022-12-18T07:35:49;18.27;;;11.93;;
6388;SDS011;3227;42.654;23.360;2022-12-18T07:38:16;19.93;;;12.33;;
6388;SDS011;3227;42.654;23.360;2022-12-18T07:40:43;18.13;;;11.67;;
6388;SDS011;3227;42.654;23.360;2022-12-18T07:43:11;23.93;;;12.17;;
6388;SDS011;3227;42.654;23.360;2022-12-18T07:45:38;19.10;;;11.17;;
6388;SDS011;3227;42.654;23.360;2022-12-18T07:48:09;20.27;;;12.60;;
6388;SDS011;3227;42.654;23.360;2022-12-18T07:50:36;18.27;;;11.80;;
6388;SDS011;3227;42.654;23.360;2022-12-18T07:53:03;19.10;;;11.97;;
6388;SDS011;3227;42.654;23.360;2022-12-18T07:55:30;20.60;;;12.83;;
6388;SDS011;3227;42.654;23.360;2022-12-18T07:58:00;22.73;;;12.80;;
6388;SDS011;3227;42.654;23.360;2022-12-18T08:00:29;21.30;;;13.33;;
6388;SDS011;3227;42.654;23.360;2022-12-18T08:02:56;19.03;;;12.57;;
6388;SDS011;3227;42.654;23.360;2022-12-18T08:05:23;20.97;;;12.83;;
6388;SDS011;3227;42.654;23.360;2022-12-18T08:07:50;22.00;;;13.57;;
6388;SDS011;3227;42.654;23.360;2022-12-18T08:10:17;20.53;;;13.00;;
6388;SDS011;3227;42.654;23.360;2022-12-18T08:12:44;22.37;;;13.43;;
6388;SDS011;3227;42.654;23.360;2022-12-18T08:15:11;20.77;;;13.17;;
6388;SDS011;3227;42.654;23.360;2022-12-18T08:17:39;25.47;;;14.47;;
6388;SDS011;3227;42.654;23.360;2022-12-18T08:20:06;28.27;;;14.93;;
6388;SDS011;3227;42.654;23.360;2022-12-18T08:22:37;22.63;;;13.60;;
6388;SDS011;3227;42.654;23.360;2022-12-18T08:25:04;23.40;;;14.30;;
6388;SDS011;3227;42.654;23.360;2022-12-18T08:27:31;23.70;;;14.57;;
6388;SDS011;3227;42.654;23.360;2022-12-18T08:29:58;19.97;;;13.23;;
6388;SDS011;3227;42.654;23.360;2022-12-18T08:32:26;21.37;;;14.23;;
6388;SDS011;3227;42.654;23.360;2022-12-18T08:34:55;21.47;;;13.63;;
6388;SDS011;3227;42.654;23.360;2022-12-18T08:37:21;24.60;;;14.73;;
6388;SDS011;3227;42.654;23.360;2022-12-18T08:39:48;24.43;;;14.63;;
6388;SDS011;3227;42.654;23.360;2022-12-18T08:42:15;25.50;;;14.93;;
6388;SDS011;3227;42.654;23.360;2022-12-18T08:45:00;22.77;;;14.70;;
6388;SDS011;3227;42.654;23.360;2022-12-18T08:47:27;22.17;;;13.10;;
6388;SDS011;3227;42.654;23.360;2022-12-18T08:49:55;23.90;;;13.97;;
6388;SDS011;3227;42.654;23.360;2022-12-18T08:52:22;21.33;;;13.83;;
6388;SDS011;3227;42.654;23.360;2022-12-18T08:54:48;24.90;;;13.93;;
6388;SDS011;3227;42.654;23.360;2022-12-18T08:57:15;23.10;;;13.83;;
6388;SDS011;3227;42.654;23.360;2022-12-18T08:59:42;23.70;;;14.80;;
6388;SDS011;3227;42.654;23.360;2022-12-18T09:02:09;24.30;;;13.73;;
6388;SDS011;3227;42.654;23.360;2022-12-18T09:04:36;26.57;;;13.87;;
6388;SDS011;3227;42.654;23.360;2022-12-18T09:07:06;24.83;;;14.63;;
6388;SDS011;3227;42.654;23.360;2022-12-18T09:09:34;24.13;;;14.33;;
6388;SDS011;3227;42.654;23.360;2022-12-18T09:12:02;24.13;;;14.30;;
6388;SDS011;3227;42.654;23.360;2022-12-18T09:14:29;26.10;;;14.77;;
6388;SDS011;3227;42.654;23.360;2022-12-18T09:16:56;23.03;;;14.00;;
6388;SDS011;3227;42.654;23.360;2022-12-18T09:19:23;23.40;;;14.37;;
6388;SDS011;3227;42.654;23.360;2022-12-18T09:21:50;23.03;;;14.43;;
6388;SDS011;3227;42.654;23.360;2022-12-18T09:24:18;26.70;;;15.63;;
6388;SDS011;3227;42.654;23.360;2022-12-18T09:26:45;27.33;;;15.30;;
6388;SDS011;3227;42.654;23.360;2022-12-18T09:29:11;22.97;;;14.30;;
6388;SDS011;3227;42.654;23.360;2022-12-18T09:31:38;23.50;;;13.90;;
6388;SDS011;3227;42.654;23.360;2022-12-18T09:34:05;22.70;;;12.80;;
6388;SDS011;3227;42.654;23.360;2022-12-18T09:36:32;22.47;;;13.50;;
6388;SDS011;3227;42.654;23.360;2022-12-18T09:38:59;22.87;;;13.13;;
6388;SDS011;3227;42.654;23.360;2022-12-18T09:41:39;21.13;;;12.87;;
6388;SDS011;3227;42.654;23.360;2022-12-18T09:44:12;20.00;;;12.60;;
6388;SDS011;3227;42.654;23.360;2022-12-18T09:46:45;21.07;;;12.67;;
6388;SDS011;3227;42.654;23.360;2022-12-18T09:49:18;22.43;;;13.23;;
6388;SDS011;3227;42.654;23.360;2022-12-18T09:51:50;22.30;;;13.37;;
6388;SDS011;3227;42.654;23.360;2022-12-18T09:54:22;23.40;;;12.87;;
6388;SDS011;3227;42.654;23.360;2022-12-18T09:56:52;19.53;;;12.67;;
6388;SDS011;3227;42.654;23.360;2022-12-18T09:59:21;21.33;;;13.00;;
6388;SDS011;3227;42.654;23.360;2022-12-18T10:01:50;22.37;;;13.43;;
6388;SDS011;3227;42.654;23.360;2022-12-18T10:04:17;20.57;;;12.57;;
6388;SDS011;3227;42.654;23.360;2022-12-18T10:06:46;22.13;;;13.07;;
6388;SDS011;3227;42.654;23.360;2022-12-18T10:09:21;20.57;;;12.90;;
6388;SDS011;3227;42.654;23.360;2022-12-18T10:11:58;20.27;;;11.83;;
6388;SDS011;3227;42.654;23.360;2022-12-18T10:14:34;20.27;;;12.87;;
6388;SDS011;3227;42.654;23.360;2022-12-18T10:17:12;22.13;;;13.47;;
6388;SDS011;3227;42.654;23.360;2022-12-18T10:19:47;22.13;;;13.00;;
6388;SDS011;3227;42.654;23.360;2022-12-18T10:22:21;23.87;;;13.73;;
6388;SDS011;3227;42.654;23.360;2022-12-18T10:24:55;21.50;;;13.90;;
6388;SDS011;3227;42.654;23.360;2022-12-18T10:27:35;22.80;;;13.60;;
6388;SDS011;3227;42.654;23.360;2022-12-18T10:30:04;24.00;;;13.90;;
6388;SDS011;3227;42.654;23.360;2022-12-18T10:32:39;24.53;;;14.10;;
6388;SDS011;3227;42.654;23.360;2022-12-18T10:35:08;20.37;;;13.03;;
6388;SDS011;3227;42.654;23.360;2022-12-18T10:37:58;22.90;;;13.17;;
6388;SDS011;3227;42.654;23.360;2022-12-18T10:40:26;23.53;;;13.17;;
6388;SDS011;3227;42.654;23.360;2022-12-18T10:43:04;21.40;;;12.97;;
6388;SDS011;3227;42.654;23.360;2022-12-18T10:45:35;21.10;;;12.23;;
6388;SDS011;3227;42.654;23.360;2022-12-18T10:48:02;22.40;;;12.97;;
6388;SDS011;3227;42.654;23.360;2022-12-18T10:50:31;24.37;;;13.23;;
6388;SDS011;3227;42.654;23.360;2022-12-18T10:53:01;22.23;;;13.63;;
6388;SDS011;3227;42.654;23.360;2022-12-18T10:55:31;20.73;;;12.87;;
6388;SDS011;3227;42.654;23.360;2022-12-18T10:58:15;21.60;;;12.77;;
6388;SDS011;3227;42.654;23.360;2022-12-18T11:01:00;22.70;;;13.93;;
6388;SDS011;3227;42.654;23.360;2022-12-18T11:03:31;23.47;;;13.87;;
6388;SDS011;3227;42.654;23.360;2022-12-18T11:06:04;21.23;;;13.43;;
6388;SDS011;3227;42.654;23.360;2022-12-18T11:08:33;22.40;;;13.53;;
6388;SDS011;3227;42.654;23.360;2022-12-18T11:11:00;19.47;;;11.97;;
6388;SDS011;3227;42.654;23.360;2022-12-18T11:13:29;20.33;;;12.80;;
6388;SDS011;3227;42.654;23.360;2022-12-18T11:15:57;21.73;;;13.17;;
6388;SDS011;3227;42.654;23.360;2022-12-18T11:18:25;21.40;;;12.97;;
6388;SDS011;3227;42.654;23.360;2022-12-18T11:20:56;23.63;;;13.40;;
6388;SDS011;3227;42.654;23.360;2022-12-18T11:23:25;22.87;;;13.10;;
6388;SDS011;3227;42.654;23.360;2022-12-18T11:25:54;20.13;;;12.10;;
6388;SDS011;3227;42.654;23.360;2022-12-18T11:28:29;24.27;;;12.70;;
6388;SDS011;3227;42.654;23.360;2022-12-18T11:31:14;21.33;;;12.57;;
6388;SDS011;3227;42.654;23.360;2022-12-18T11:33:45;22.83;;;12.57;;
6388;SDS011;3227;42.654;23.360;2022-12-18T11:36:16;22.07;;;13.00;;
6388;SDS011;3227;42.654;23.360;2022-12-18T11:38:45;18.87;;;12.27;;
6388;SDS011;3227;42.654;23.360;2022-12-18T11:41:15;23.87;;;12.90;;
6388;SDS011;3227;42.654;23.360;2022-12-18T11:43:49;20.93;;;12.80;;
6388;SDS011;3227;42.654;23.360;2022-12-18T11:46:36;24.37;;;13.70;;
6388;SDS011;3227;42.654;23.360;2022-12-18T11:49:07;21.97;;;12.47;;
6388;SDS011;3227;42.654;23.360;2022-12-18T11:51:41;21.67;;;12.60;;
6388;SDS011;3227;42.654;23.360;2022-12-18T11:54:15;20.13;;;12.30;;
6388;SDS011;3227;42.654;23.360;2022-12-18T11:56:43;20.63;;;12.97;;
6388;SDS011;3227;42.654;23.360;2022-12-18T11:59:17;21.73;;;12.77;;
6388;SDS011;3227;42.654;23.360;2022-12-18T12:01:51;18.77;;;11.47;;
6388;SDS011;3227;42.654;23.360;2022-12-18T12:04:35;21.53;;;12.23;;
6388;SDS011;3227;42.654;23.360;2022-12-18T12:07:31;19.83;;;12.00;;
6388;SDS011;3227;42.654;23.360;2022-12-18T12:10:08;23.20;;;12.07;;
6388;SDS011;3227;42.654;23.360;2022-12-18T12:12:51;20.13;;;12.33;;
6388;SDS011;3227;42.654;23.360;2022-12-18T12:15:32;25.90;;;12.67;;
6388;SDS011;3227;42.654;23.360;2022-12-18T12:18:08;23.13;;;12.73;;
6388;SDS011;3227;42.654;23.360;2022-12-18T12:20:49;27.23;;;12.77;;
6388;SDS011;3227;42.654;23.360;2022-12-18T12:23:23;21.17;;;13.00;;
6388;SDS011;3227;42.654;23.360;2022-12-18T12:25:57;20.33;;;12.33;;
6388;SDS011;3227;42.654;23.360;2022-12-18T12:28:36;23.13;;;13.93;;
6388;SDS011;3227;42.654;23.360;2022-12-18T12:31:19;19.97;;;12.17;;
6388;SDS011;3227;42.654;23.360;2022-12-18T12:33:59;23.67;;;12.97;;
6388;SDS011;3227;42.654;23.360;2022-12-18T12:36:35;22.60;;;13.50;;
6388;SDS011;3227;42.654;23.360;2022-12-18T12:39:13;23.27;;;13.13;;
6388;SDS011;3227;42.654;23.360;2022-12-18T12:41:45;22.23;;;13.00;;
6388;SDS011;3227;42.654;23.360;2022-12-18T12:44:30;29.53;;;13.50;;
6388;SDS011;3227;42.654;23.360;2022-12-18T12:47:04;21.40;;;12.47;;
6388;SDS011;3227;42.654;23.360;2022-12-18T12:49:38;25.03;;;12.80;;
6388;SDS011;3227;42.654;23.360;2022-12-18T12:52:13;24.13;;;14.20;;
6388;SDS011;3227;42.654;23.360;2022-12-18T12:54:43;23.83;;;14.30;;
6388;SDS011;3227;42.654;23.360;2022-12-18T12:57:12;21.17;;;12.87;;
6388;SDS011;3227;42.654;23.360;2022-12-18T12:59:49;21.53;;;13.37;;
6388;SDS011;3227;42.654;23.360;2022-12-18T13:02:28;21.07;;;13.20;;
6388;SDS011;3227;42.654;23.360;2022-12-18T13:05:01;21.67;;;13.60;;
6388;SDS011;3227;42.654;23.360;2022-12-18T13:07:39;23.13;;;13.87;;
6388;SDS011;3227;42.654;23.360;2022-12-18T13:10:13;22.10;;;13.40;;
6388;SDS011;3227;42.654;23.360;2022-12-18T13:12:53;21.83;;;13.57;;
6388;SDS011;3227;42.654;23.360;2022-12-18T13:15:23;24.20;;;14.20;;
6388;SDS011;3227;42.654;23.360;2022-12-18T13:20:44;23.37;;;14.43;;
6388;SDS011;3227;42.654;23.360;2022-12-18T13:23:19;24.13;;;13.93;;
6388;SDS011;3227;42.654;23.360;2022-12-18T13:25:52;25.07;;;14.43;;
6388;SDS011;3227;42.654;23.360;2022-12-18T13:28:20;21.80;;;13.73;;
6388;SDS011;3227;42.654;23.360;2022-12-18T13:30:51;22.60;;;13.13;;
6388;SDS011;3227;42.654;23.360;2022-12-18T13:36:35;23.23;;;14.67;;
6388;SDS011;3227;42.654;23.360;2022-12-18T13:39:09;25.90;;;14.87;;
6388;SDS011;3227;42.654;23.360;2022-12-18T13:41:51;22.47;;;13.83;;
6388;SDS011;3227;42.654;23.360;2022-12-18T13:44:24;22.93;;;13.57;;
6388;SDS011;3227;42.654;23.360;2022-12-18T13:46:56;24.80;;;14.60;;
6388;SDS011;3227;42.654;23.360;2022-12-18T13:49:26;22.97;;;13.27;;
6388;SDS011;3227;42.654;23.360;2022-12-18T13:51:59;21.50;;;13.50;;
6388;SDS011;3227;42.654;23.360;2022-12-18T13:54:28;20.07;;;12.43;;
6388;SDS011;3227;42.654;23.360;2022-12-18T13:56:59;20.83;;;13.90;;
6388;SDS011;3227;42.654;23.360;2022-12-18T13:59:32;22.43;;;13.47;;
6388;SDS011;3227;42.654;23.360;2022-12-18T14:02:05;25.40;;;13.67;;
6388;SDS011;3227;42.654;23.360;2022-12-18T14:04:40;22.00;;;14.13;;
6388;SDS011;3227;42.654;23.360;2022-12-18T14:07:07;25.93;;;14.17;;
6388;SDS011;3227;42.654;23.360;2022-12-18T14:09:40;22.60;;;14.67;;
6388;SDS011;3227;42.654;23.360;2022-12-18T14:12:14;22.90;;;13.13;;
6388;SDS011;3227;42.654;23.360;2022-12-18T14:15:01;23.50;;;13.67;;
6388;SDS011;3227;42.654;23.360;2022-12-18T14:17:28;21.77;;;12.77;;
6388;SDS011;3227;42.654;23.360;2022-12-18T14:19:58;21.90;;;13.23;;
6388;SDS011;3227;42.654;23.360;2022-12-18T14:22:26;19.93;;;11.70;;
6388;SDS011;3227;42.654;23.360;2022-12-18T14:25:13;24.00;;;12.37;;
6388;SDS011;3227;42.654;23.360;2022-12-18T14:27:43;19.40;;;12.40;;
6388;SDS011;3227;42.654;23.360;2022-12-18T14:30:27;19.07;;;11.93;;
6388;SDS011;3227;42.654;23.360;2022-12-18T14:33:00;19.00;;;11.57;;
6388;SDS011;3227;42.654;23.360;2022-12-18T14:35:29;18.03;;;11.27;;
6388;SDS011;3227;42.654;23.360;2022-12-18T14:38:08;19.37;;;11.40;;
6388;SDS011;3227;42.654;23.360;2022-12-18T14:40:47;19.67;;;11.70;;
6388;SDS011;3227;42.654;23.360;2022-12-18T14:43:19;19.70;;;11.67;;
6388;SDS011;3227;42.654;23.360;2022-12-18T14:45:46;19.37;;;10.67;;
6388;SDS011;3227;42.654;23.360;2022-12-18T14:48:15;20.30;;;11.60;;
6388;SDS011;3227;42.654;23.360;2022-12-18T14:50:53;19.70;;;11.37;;
6388;SDS011;3227;42.654;23.360;2022-12-18T14:53:23;19.57;;;11.07;;
6388;SDS011;3227;42.654;23.360;2022-12-18T14:55:59;18.47;;;11.30;;
6388;SDS011;3227;42.654;23.360;2022-12-18T14:58:26;22.07;;;12.67;;
6388;SDS011;3227;42.654;23.360;2022-12-18T15:00:53;19.00;;;10.67;;
6388;SDS011;3227;42.654;23.360;2022-12-18T15:03:20;21.40;;;12.30;;
6388;SDS011;3227;42.654;23.360;2022-12-18T15:05:49;20.77;;;12.10;;
6388;SDS011;3227;42.654;23.360;2022-12-18T15:08:28;19.47;;;11.63;;